Terminal Aerodrome Forecast
Issued by NWS

Home | Current Version | Previous Version | Text Only | Print | Product List | Glossary On
Versions: 1 2 3 4 5 6 7 8 9 10 11 12 13 14 15 16 17 18
765
FTUS45 KABQ 212337
TAFFMN
TAF
KFMN 212337Z 2200/2224 28015G25KT P6SM VCSH SCT020 BKN035
      TEMPO 2200/2202 6SM -SHSN BKN030
     FM220400 29011KT P6SM SCT020
     FM221100 30006KT P6SM VCFG SCT003
     FM221500 09006KT P6SM SCT070 BKN150
     FM222200 VRB05KT P6SM VCSH BKN050=

USA.gov is the U.S. government's official web portal to all federal, state and local government web resources and services.